createdAt,value
2017-10-30T00:00:30.606Z,89.20
2017-10-30T00:02:58.099Z,89.10
2017-10-30T00:05:25.586Z,89.30
2017-10-30T00:07:53.459Z,89.10
2017-10-30T00:10:21.342Z,89.20
2017-10-30T00:12:48.817Z,89.10
2017-10-30T00:15:16.307Z,89.40
2017-10-30T00:17:43.779Z,89.20
2017-10-30T00:20:11.278Z,89.60
2017-10-30T00:22:38.749Z,89.50
2017-10-30T00:25:06.256Z,89.50
2017-10-30T00:27:33.743Z,89.50
2017-10-30T00:30:01.252Z,89.60
2017-10-30T00:32:28.727Z,89.60
2017-10-30T00:34:56.215Z,89.80
2017-10-30T00:37:24.083Z,89.80
2017-10-30T00:39:53.895Z,89.70
2017-10-30T00:42:21.764Z,89.70
2017-10-30T00:44:49.264Z,89.70
2017-10-30T00:47:16.743Z,89.70
2017-10-30T00:49:44.241Z,89.70
2017-10-30T00:52:11.742Z,89.50
2017-10-30T00:54:39.788Z,89.50
2017-10-30T00:57:08.199Z,89.30
2017-10-30T00:59:35.688Z,89.20
2017-10-30T01:02:03.555Z,89.30
2017-10-30T01:04:31.447Z,89.30
2017-10-30T01:06:58.929Z,89.30
2017-10-30T01:09:26.427Z,89.30
2017-10-30T01:11:53.911Z,89.30
2017-10-30T01:14:21.407Z,89.40
2017-10-30T01:16:48.903Z,89.40
2017-10-30T01:19:16.376Z,89.40
2017-10-30T01:21:44.258Z,88.90
2017-10-30T01:24:11.760Z,88.90
2017-10-30T01:26:39.244Z,88.70
2017-10-30T01:29:06.742Z,88.90
2017-10-30T01:31:34.232Z,88.60
2017-10-30T01:34:01.727Z,88.50
2017-10-30T01:36:29.227Z,88.60
2017-10-30T01:38:56.719Z,88.80
2017-10-30T01:41:24.403Z,88.60
2017-10-30T01:43:52.295Z,89.00
2017-10-30T01:46:19.779Z,89.00
2017-10-30T01:48:47.283Z,89.00
2017-10-30T01:51:15.160Z,89.10
2017-10-30T01:53:43.061Z,88.80
2017-10-30T01:56:10.544Z,88.90
2017-10-30T01:58:38.048Z,89.20
2017-10-30T02:01:05.914Z,89.00
2017-10-30T02:03:33.809Z,89.00
2017-10-30T02:06:01.292Z,89.00
2017-10-30T02:08:28.795Z,89.30
2017-10-30T02:10:56.292Z,89.10
2017-10-30T02:13:23.795Z,89.30
2017-10-30T02:15:51.267Z,89.50
2017-10-30T02:18:19.136Z,89.50
2017-10-30T02:20:47.109Z,89.60
2017-10-30T02:23:14.980Z,89.90
2017-10-30T02:25:42.491Z,89.90
2017-10-30T02:28:09.989Z,89.80
2017-10-30T02:30:37.523Z,89.80
2017-10-30T02:33:04.999Z,89.80
2017-10-30T02:35:32.884Z,89.50
2017-10-30T02:38:00.385Z,89.50
2017-10-30T02:40:27.888Z,89.50
2017-10-30T02:42:55.786Z,89.50
2017-10-30T02:45:23.269Z,89.50
2017-10-30T02:47:50.772Z,89.50
2017-10-30T02:50:18.638Z,89.40
2017-10-30T02:52:46.506Z,89.60
2017-10-30T02:55:14.420Z,89.80
2017-10-30T02:57:41.896Z,89.80
2017-10-30T03:00:09.388Z,89.80
2017-10-30T03:02:37.260Z,90.30
2017-10-30T03:05:05.164Z,90.20
2017-10-30T03:07:32.643Z,90.20
2017-10-30T03:10:00.144Z,90.40
2017-10-30T03:12:28.012Z,90.30
2017-10-30T03:14:55.908Z,90.50
2017-10-30T03:17:23.393Z,90.50
2017-10-30T03:19:52.842Z,90.50
2017-10-30T03:22:20.327Z,90.60
2017-10-30T03:24:47.851Z,90.70
2017-10-30T03:27:16.676Z,90.60
2017-10-30T03:29:44.178Z,90.70
2017-10-30T03:32:11.664Z,90.50
2017-10-30T03:34:41.102Z,90.50
2017-10-30T03:37:08.581Z,90.50
2017-10-30T03:39:36.060Z,90.80
2017-10-30T03:42:03.963Z,90.70
2017-10-30T03:44:31.465Z,90.70
2017-10-30T03:46:59.019Z,91.20
2017-10-30T03:49:26.498Z,91.10
2017-10-30T03:51:54.020Z,90.70
2017-10-30T03:54:21.510Z,90.90
2017-10-30T03:56:48.987Z,91.00
2017-10-30T03:59:16.880Z,90.70
2017-10-30T04:01:44.355Z,90.70
2017-10-30T04:04:11.854Z,90.80
2017-10-30T04:06:39.338Z,90.80
2017-10-30T04:09:07.224Z,91.30
2017-10-30T04:11:34.700Z,91.30
2017-10-30T04:14:02.179Z,91.30
2017-10-30T04:16:29.712Z,91.10
2017-10-30T04:18:57.192Z,90.80
2017-10-30T04:21:24.679Z,90.60
2017-10-30T04:23:52.557Z,90.60
2017-10-30T04:26:20.458Z,90.60
2017-10-30T04:28:48.880Z,90.60
2017-10-30T04:31:16.364Z,90.50
2017-10-30T04:33:46.210Z,90.60
2017-10-30T04:36:13.698Z,90.70
2017-10-30T04:38:41.191Z,90.80
2017-10-30T04:41:09.964Z,90.90
2017-10-30T04:43:37.858Z,90.80
2017-10-30T04:46:05.336Z,90.80
2017-10-30T04:48:32.833Z,90.70
2017-10-30T04:51:00.734Z,90.70
2017-10-30T04:53:28.631Z,90.30
2017-10-30T04:55:56.112Z,90.30
2017-10-30T04:58:23.614Z,90.50
2017-10-30T05:00:51.489Z,90.80
2017-10-30T05:03:18.999Z,90.80
2017-10-30T05:05:46.495Z,90.60
2017-10-30T05:08:15.955Z,90.90
2017-10-30T05:10:43.443Z,90.90
2017-10-30T05:13:11.355Z,91.00
2017-10-30T05:15:38.843Z,91.00
2017-10-30T05:18:06.338Z,91.40
2017-10-30T05:20:34.220Z,90.70
2017-10-30T05:23:01.724Z,90.70
2017-10-30T05:25:29.221Z,90.60
2017-10-30T05:27:57.103Z,90.80
2017-10-30T05:30:25.535Z,90.80
2017-10-30T05:32:53.935Z,90.60
2017-10-30T05:35:21.816Z,90.50
2017-10-30T05:37:49.712Z,90.70
2017-10-30T05:40:17.203Z,90.70
2017-10-30T05:42:44.696Z,90.50
2017-10-30T05:45:13.475Z,90.90
2017-10-30T05:47:41.380Z,90.80
2017-10-30T05:50:08.864Z,90.80
2017-10-30T05:52:36.373Z,90.70
2017-10-30T05:55:03.863Z,91.00
2017-10-30T05:57:32.304Z,90.70
2017-10-30T06:00:00.216Z,90.70
2017-10-30T06:02:27.692Z,90.70
2017-10-30T06:04:57.136Z,90.60
2017-10-30T06:07:25.018Z,90.50
2017-10-30T06:09:52.499Z,90.50
2017-10-30T06:12:20.024Z,90.90
2017-10-30T06:14:47.887Z,90.50
2017-10-30T06:17:15.781Z,90.40
2017-10-30T06:19:43.272Z,90.40
2017-10-30T06:22:10.765Z,90.90
2017-10-30T06:24:38.665Z,90.20
2017-10-30T06:27:06.150Z,90.20
2017-10-30T06:29:33.626Z,90.20
2017-10-30T06:32:01.115Z,90.00
2017-10-30T06:34:29.977Z,90.20
2017-10-30T06:36:57.475Z,90.20
2017-10-30T06:39:24.969Z,89.90
2017-10-30T06:41:52.456Z,90.10
2017-10-30T06:44:19.955Z,90.30
2017-10-30T06:46:47.451Z,90.10
2017-10-30T06:49:14.939Z,89.80
2017-10-30T06:51:42.810Z,90.00
2017-10-30T06:54:10.687Z,90.20
2017-10-30T06:56:40.544Z,90.40
2017-10-30T06:59:08.145Z,90.40
2017-10-30T07:01:36.035Z,89.30
2017-10-30T07:04:03.517Z,89.30
2017-10-30T07:06:31.010Z,89.20
2017-10-30T07:08:58.491Z,89.20
2017-10-30T07:11:26.384Z,89.00
2017-10-30T07:13:53.876Z,89.00
2017-10-30T07:16:21.384Z,88.80
2017-10-30T07:18:49.291Z,88.80
2017-10-30T07:21:16.773Z,88.80
2017-10-30T07:23:44.276Z,88.70
2017-10-30T07:26:11.775Z,88.80
2017-10-30T07:28:39.248Z,88.80
2017-10-30T07:31:06.764Z,88.90
2017-10-30T07:33:34.268Z,89.10
2017-10-30T07:36:01.757Z,88.70
2017-10-30T07:38:29.667Z,88.50
2017-10-30T07:40:57.143Z,88.50
2017-10-30T07:43:24.647Z,88.30
2017-10-30T07:45:53.080Z,88.20
2017-10-30T07:48:20.579Z,88.40
2017-10-30T07:50:48.450Z,88.50
2017-10-30T07:53:15.956Z,88.50
2017-10-30T07:55:43.444Z,88.10
2017-10-30T07:58:11.350Z,88.20
2017-10-30T08:00:38.832Z,88.20
2017-10-30T08:03:08.988Z,87.90
2017-10-30T08:05:48.852Z,87.70
2017-10-30T08:08:16.360Z,87.70
2017-10-30T08:10:43.836Z,87.50
2017-10-30T08:13:11.334Z,87.00
2017-10-30T08:15:38.806Z,87.00
2017-10-30T08:18:06.314Z,87.10
2017-10-30T08:20:33.803Z,86.50
2017-10-30T08:23:01.294Z,86.40
2017-10-30T08:25:28.780Z,86.30
2017-10-30T08:27:56.263Z,86.20
2017-10-30T08:30:24.179Z,86.00
2017-10-30T08:32:51.660Z,86.00
2017-10-30T08:35:19.243Z,86.20
2017-10-30T08:37:46.756Z,86.20
2017-10-30T08:40:14.273Z,86.10
2017-10-30T08:42:44.084Z,86.00
2017-10-30T08:45:11.974Z,85.90
2017-10-30T08:47:39.455Z,85.90
2017-10-30T08:50:06.962Z,86.30
2017-10-30T08:52:34.858Z,85.80
2017-10-30T08:55:02.363Z,85.80
2017-10-30T08:57:29.851Z,85.50
2017-10-30T08:59:57.735Z,84.40
2017-10-30T09:02:27.195Z,84.40
2017-10-30T09:04:54.685Z,84.90
2017-10-30T09:07:22.575Z,85.30
2017-10-30T09:09:50.062Z,85.30
2017-10-30T09:12:19.487Z,85.20
2017-10-30T09:14:46.986Z,84.80
2017-10-30T09:17:14.491Z,84.90
2017-10-30T09:19:41.979Z,85.00
2017-10-30T09:22:09.897Z,84.60
2017-10-30T09:24:37.369Z,84.60
2017-10-30T09:27:04.860Z,84.70
2017-10-30T09:29:32.735Z,85.00
2017-10-30T09:32:00.228Z,85.00
2017-10-30T09:34:27.736Z,85.10
2017-10-30T09:36:55.615Z,85.10
2017-10-30T09:39:23.518Z,83.90
2017-10-30T09:41:51.072Z,83.90
2017-10-30T09:44:18.555Z,83.80
2017-10-30T09:46:46.074Z,84.00
2017-10-30T09:49:13.560Z,83.90
2017-10-30T09:51:41.066Z,83.50
2017-10-30T09:54:08.947Z,83.20
2017-10-30T09:56:36.447Z,83.20
2017-10-30T09:59:03.952Z,82.50
2017-10-30T10:01:31.844Z,82.70
2017-10-30T10:03:59.343Z,82.70
2017-10-30T10:06:26.891Z,82.30
2017-10-30T10:08:54.371Z,81.80
2017-10-30T10:11:21.888Z,82.10
2017-10-30T10:13:49.378Z,82.80
2017-10-30T10:16:16.867Z,82.30
2017-10-30T10:18:44.765Z,82.70
2017-10-30T10:21:12.252Z,82.70
2017-10-30T10:23:39.751Z,82.60
2017-10-30T10:26:07.629Z,83.40
2017-10-30T10:28:35.120Z,83.40
2017-10-30T10:31:02.636Z,83.10
2017-10-30T10:33:31.467Z,82.50
2017-10-30T10:35:58.983Z,82.50
2017-10-30T10:38:26.860Z,82.30
2017-10-30T10:40:54.351Z,82.50
2017-10-30T10:43:21.931Z,82.10
2017-10-30T10:45:49.416Z,82.30
2017-10-30T10:48:17.316Z,81.00
2017-10-30T10:50:44.809Z,81.00
2017-10-30T10:53:12.291Z,80.00
2017-10-30T10:55:39.817Z,79.20
2017-10-30T10:58:07.326Z,80.00
2017-10-30T11:00:34.829Z,80.20
2017-10-30T11:03:03.259Z,80.50
2017-10-30T11:05:31.135Z,80.10
2017-10-30T11:07:59.021Z,78.60
2017-10-30T11:10:26.496Z,78.60
2017-10-30T11:12:54.019Z,78.70
2017-10-30T11:15:21.505Z,78.80
2017-10-30T11:17:48.983Z,79.20
2017-10-30T11:20:16.509Z,78.30
2017-10-30T11:22:44.007Z,78.90
2017-10-30T11:25:11.512Z,79.50
2017-10-30T11:27:39.003Z,79.70
2017-10-30T11:30:06.483Z,78.90
2017-10-30T11:32:33.979Z,78.40
2017-10-30T11:35:01.859Z,78.20
2017-10-30T11:37:29.359Z,78.20
2017-10-30T11:39:58.315Z,78.30
2017-10-30T11:42:25.791Z,78.10
2017-10-30T11:44:53.291Z,78.10
2017-10-30T11:47:20.798Z,78.70
2017-10-30T11:49:48.298Z,78.00
2017-10-30T11:52:15.780Z,76.90
2017-10-30T11:54:43.663Z,75.90
2017-10-30T11:57:11.171Z,75.90
2017-10-30T11:59:38.683Z,76.80
2017-10-30T12:02:08.147Z,76.60
2017-10-30T12:04:35.630Z,77.00
2017-10-30T12:07:03.535Z,75.70
2017-10-30T12:09:31.040Z,75.70
2017-10-30T12:11:58.523Z,76.70
2017-10-30T12:14:26.027Z,76.50
2017-10-30T12:16:53.515Z,76.50
2017-10-30T12:19:21.037Z,76.90
2017-10-30T12:21:48.540Z,76.20
2017-10-30T12:24:16.427Z,75.40
2017-10-30T12:26:43.936Z,75.40
2017-10-30T12:29:11.437Z,76.10
2017-10-30T12:31:39.896Z,76.60
2017-10-30T12:34:09.772Z,76.30
2017-10-30T12:36:37.255Z,76.30
2017-10-30T12:39:04.812Z,75.40
2017-10-30T12:41:32.403Z,75.10
2017-10-30T12:44:00.327Z,75.40
2017-10-30T12:46:27.877Z,75.40
2017-10-30T12:48:55.376Z,75.90
2017-10-30T12:51:24.216Z,75.70
2017-10-30T12:53:53.397Z,75.70
2017-10-30T12:56:20.883Z,76.00
2017-10-30T12:58:48.384Z,77.30
2017-10-30T13:01:16.272Z,76.80
2017-10-30T13:03:44.712Z,76.80
2017-10-30T13:06:13.404Z,76.60
2017-10-30T13:08:41.287Z,76.30
2017-10-30T13:11:09.187Z,76.40
2017-10-30T13:13:36.693Z,76.40
2017-10-30T13:16:04.193Z,76.60
2017-10-30T13:18:31.707Z,76.90
2017-10-30T13:20:59.258Z,76.50
2017-10-30T13:23:26.786Z,76.20
2017-10-30T13:25:54.283Z,76.80
2017-10-30T13:28:21.775Z,76.40
2017-10-30T13:30:49.292Z,77.00
2017-10-30T13:33:16.792Z,76.10
2017-10-30T13:35:44.299Z,76.20
2017-10-30T13:38:11.784Z,76.10
2017-10-30T13:40:39.672Z,76.90
2017-10-30T13:43:09.523Z,76.70
2017-10-30T13:45:37.011Z,76.70
2017-10-30T13:48:04.518Z,76.70
2017-10-30T13:50:32.025Z,76.60
2017-10-30T13:52:59.522Z,76.80
2017-10-30T13:55:27.018Z,76.60
2017-10-30T13:57:54.527Z,76.60
2017-10-30T14:00:22.060Z,76.20
2017-10-30T14:02:49.545Z,76.50
2017-10-30T14:05:17.434Z,77.00
2017-10-30T14:07:44.935Z,77.00
2017-10-30T14:10:12.439Z,77.00
2017-10-30T14:12:39.923Z,76.80
2017-10-30T14:15:08.025Z,76.00
2017-10-30T14:17:35.523Z,76.30
2017-10-30T14:20:03.063Z,76.40
2017-10-30T14:22:30.951Z,76.90
2017-10-30T14:24:58.458Z,76.90
2017-10-30T14:27:25.947Z,76.80
2017-10-30T14:29:53.864Z,76.80
2017-10-30T14:32:21.348Z,76.80
2017-10-30T14:34:48.847Z,76.50
2017-10-30T14:37:17.295Z,76.60
2017-10-30T14:39:44.799Z,76.70
2017-10-30T14:42:12.280Z,76.50
2017-10-30T14:44:40.299Z,76.60
2017-10-30T14:47:07.767Z,76.50
2017-10-30T14:49:35.675Z,77.10
2017-10-30T14:52:03.872Z,77.10
2017-10-30T14:54:31.371Z,76.90
2017-10-30T14:56:58.862Z,77.00
2017-10-30T14:59:28.362Z,76.90
2017-10-30T15:01:55.846Z,77.20
2017-10-30T15:04:23.849Z,77.40
2017-10-30T15:06:52.202Z,76.90
2017-10-30T15:09:19.749Z,76.90
2017-10-30T15:11:47.247Z,77.30
2017-10-30T15:14:15.140Z,77.40
2017-10-30T15:16:42.624Z,77.50
2017-10-30T15:19:11.131Z,77.50
2017-10-30T15:21:38.620Z,78.20
2017-10-30T15:24:06.959Z,78.00
2017-10-30T15:26:35.443Z,78.00
2017-10-30T15:29:02.946Z,78.20
2017-10-30T15:31:30.425Z,78.30
2017-10-30T15:33:58.675Z,78.40
2017-10-30T15:36:26.156Z,79.10
2017-10-30T15:38:53.665Z,78.80
2017-10-30T15:41:21.548Z,79.10
2017-10-30T15:43:49.454Z,78.90
2017-10-30T15:46:16.959Z,78.90
2017-10-30T15:48:44.460Z,79.00
2017-10-30T15:51:11.939Z,79.00
2017-10-30T15:53:39.441Z,79.00
2017-10-30T15:56:07.350Z,79.70
2017-10-30T15:58:34.864Z,79.70
2017-10-30T16:01:02.749Z,79.70
2017-10-30T16:03:30.236Z,79.70
2017-10-30T16:05:57.797Z,80.30
2017-10-30T16:08:25.315Z,80.00
2017-10-30T16:10:53.201Z,80.20
2017-10-30T16:13:21.902Z,80.20
2017-10-30T16:15:49.404Z,80.50
2017-10-30T16:18:16.899Z,80.40
2017-10-30T16:20:44.408Z,80.70
2017-10-30T16:23:12.836Z,80.90
2017-10-30T16:25:40.368Z,80.40
2017-10-30T16:28:07.847Z,80.20
2017-10-30T16:30:35.397Z,80.40
2017-10-30T16:33:03.323Z,80.60
2017-10-30T16:35:30.839Z,80.50
2017-10-30T16:37:58.319Z,80.40
2017-10-30T16:40:25.824Z,81.30
2017-10-30T16:42:53.299Z,80.30
2017-10-30T16:45:20.827Z,80.60
2017-10-30T16:47:48.324Z,80.30
2017-10-30T16:50:15.816Z,80.30
2017-10-30T16:52:45.246Z,80.30
2017-10-30T16:55:13.696Z,80.50
2017-10-30T16:57:41.190Z,80.50
2017-10-30T17:00:10.624Z,80.50
2017-10-30T17:02:38.111Z,80.40
2017-10-30T17:05:05.613Z,80.30
2017-10-30T17:07:33.494Z,80.50
2017-10-30T17:10:01.383Z,80.50
2017-10-30T17:12:28.885Z,80.50
2017-10-30T17:14:56.355Z,80.50
2017-10-30T17:17:23.880Z,80.50
2017-10-30T17:19:52.287Z,80.50
2017-10-30T17:22:19.768Z,80.60
2017-10-30T17:24:47.663Z,81.10
2017-10-30T17:27:15.153Z,81.10
2017-10-30T17:29:42.656Z,80.70
2017-10-30T17:32:11.059Z,80.90
2017-10-30T17:34:38.536Z,80.90
2017-10-30T17:37:06.036Z,81.00
2017-10-30T17:39:40.331Z,80.90
2017-10-30T17:42:09.601Z,80.90
2017-10-30T17:44:37.119Z,81.30
2017-10-30T17:47:04.594Z,81.80
2017-10-30T17:49:32.104Z,81.80
2017-10-30T17:51:59.584Z,81.60
2017-10-30T17:54:27.092Z,81.00
2017-10-30T17:56:54.590Z,81.10
2017-10-30T17:59:22.124Z,81.50
2017-10-30T18:01:49.610Z,81.30
2017-10-30T18:04:17.151Z,81.60
2017-10-30T18:06:44.623Z,81.90
2017-10-30T18:09:12.134Z,81.50
2017-10-30T18:11:39.632Z,81.40
2017-10-30T18:14:07.141Z,81.40
2017-10-30T18:16:34.640Z,81.40
2017-10-30T18:19:02.111Z,81.50
2017-10-30T18:21:30.539Z,81.30
2017-10-30T18:23:58.038Z,81.20
2017-10-30T18:26:25.519Z,81.40
2017-10-30T18:28:53.026Z,81.90
2017-10-30T18:31:20.517Z,82.20
2017-10-30T18:33:48.021Z,81.80
2017-10-30T18:36:15.901Z,81.90
2017-10-30T18:38:43.419Z,81.90
2017-10-30T18:41:10.894Z,81.90
2017-10-30T18:43:40.720Z,81.20
2017-10-30T18:46:08.204Z,81.20
2017-10-30T18:48:35.712Z,81.80
2017-10-30T18:51:03.604Z,81.30
2017-10-30T18:53:31.102Z,81.30
2017-10-30T18:55:58.640Z,81.50
2017-10-30T18:58:26.661Z,81.90
2017-10-30T19:00:54.144Z,81.80
2017-10-30T19:03:21.640Z,81.60
2017-10-30T19:05:49.120Z,82.00
2017-10-30T19:08:17.060Z,82.20
2017-10-30T19:10:45.480Z,82.20
2017-10-30T19:13:12.991Z,81.90
2017-10-30T19:15:40.480Z,82.30
2017-10-30T19:18:08.059Z,81.80
2017-10-30T19:20:35.570Z,82.20
2017-10-30T19:23:03.996Z,82.60
2017-10-30T19:25:31.482Z,82.30
2017-10-30T19:27:58.987Z,83.00
2017-10-30T19:30:26.477Z,83.00
2017-10-30T19:32:53.975Z,83.30
2017-10-30T19:35:21.487Z,83.20
2017-10-30T19:37:48.969Z,84.00
2017-10-30T19:40:34.277Z,83.00
2017-10-30T19:43:01.759Z,83.40
2017-10-30T19:45:29.271Z,83.00
2017-10-30T19:47:56.767Z,83.30
2017-10-30T19:50:24.531Z,83.60
2017-10-30T19:52:52.022Z,83.80
2017-10-30T19:55:21.019Z,84.30
2017-10-30T19:57:49.704Z,83.80
2017-10-30T20:00:17.598Z,83.90
2017-10-30T20:02:45.071Z,83.90
2017-10-30T20:05:18.317Z,84.30
2017-10-30T20:07:51.607Z,85.00
2017-10-30T20:10:24.839Z,85.00
2017-10-30T20:12:52.328Z,85.20
2017-10-30T20:15:19.837Z,85.40
2017-10-30T20:17:48.663Z,85.70
2017-10-30T20:20:17.006Z,85.70
2017-10-30T20:22:44.901Z,86.00
2017-10-30T20:25:14.710Z,86.00
2017-10-30T20:27:42.197Z,86.00
2017-10-30T20:30:09.691Z,86.50
2017-10-30T20:32:37.605Z,87.60
2017-10-30T20:35:05.108Z,87.50
2017-10-30T20:37:32.990Z,88.10
2017-10-30T20:40:01.817Z,88.20
2017-10-30T20:42:29.324Z,88.20
2017-10-30T20:44:56.807Z,88.20
2017-10-30T20:47:24.594Z,88.30
2017-10-30T20:49:52.096Z,88.30
2017-10-30T20:52:19.568Z,88.50
2017-10-30T20:54:47.505Z,89.30
2017-10-30T20:57:14.978Z,89.30
2017-10-30T20:59:42.477Z,89.60
2017-10-30T21:02:09.957Z,89.80
2017-10-30T21:04:37.463Z,89.70
2017-10-30T21:07:04.945Z,89.90
2017-10-30T21:09:32.456Z,90.00
2017-10-30T21:11:59.961Z,90.00
2017-10-30T21:14:27.451Z,90.00
2017-10-30T21:16:54.949Z,90.50
2017-10-30T21:19:22.451Z,90.80
2017-10-30T21:21:49.939Z,91.60
2017-10-30T21:24:17.433Z,92.10
2017-10-30T21:26:45.302Z,92.30
2017-10-30T21:29:13.195Z,92.50
2017-10-30T21:31:40.683Z,92.50
2017-10-30T21:34:10.102Z,92.90
2017-10-30T21:36:37.602Z,92.80
2017-10-30T21:39:05.118Z,93.00
2017-10-30T21:41:32.607Z,93.20
2017-10-30T21:44:00.479Z,93.50
2017-10-30T21:46:27.981Z,93.50
2017-10-30T21:48:56.412Z,93.70
2017-10-30T21:51:24.307Z,94.60
2017-10-30T21:53:51.807Z,94.60
2017-10-30T21:56:19.291Z,94.70
2017-10-30T21:58:47.190Z,93.90
2017-10-30T22:01:14.675Z,93.90
2017-10-30T22:03:42.962Z,93.30
2017-10-30T22:06:10.435Z,93.30
2017-10-30T22:08:39.875Z,93.60
2017-10-30T22:11:08.337Z,93.50
2017-10-30T22:13:35.883Z,93.20
2017-10-30T22:16:03.359Z,93.20
2017-10-30T22:18:31.260Z,93.10
2017-10-30T22:20:59.547Z,93.10
2017-10-30T22:23:27.031Z,93.00
2017-10-30T22:25:55.014Z,92.80
2017-10-30T22:28:22.511Z,92.70
2017-10-30T22:30:50.003Z,92.70
2017-10-30T22:33:17.474Z,92.70
2017-10-30T22:35:44.963Z,92.70
2017-10-30T22:38:13.359Z,92.60
2017-10-30T22:40:40.852Z,92.70
2017-10-30T22:43:08.355Z,92.70
2017-10-30T22:45:36.239Z,92.80
2017-10-30T22:48:03.716Z,92.80
2017-10-30T22:50:31.204Z,92.90
2017-10-30T22:52:58.681Z,92.90
2017-10-30T22:55:26.191Z,93.30
2017-10-30T22:57:53.704Z,93.00
2017-10-30T23:00:21.587Z,92.80
2017-10-30T23:02:49.092Z,92.80
2017-10-30T23:05:16.584Z,93.30
2017-10-30T23:07:44.478Z,93.30
2017-10-30T23:10:12.934Z,93.30
2017-10-30T23:12:40.823Z,93.50
2017-10-30T23:15:08.308Z,93.50
2017-10-30T23:17:35.815Z,93.40
2017-10-30T23:20:03.708Z,93.70
2017-10-30T23:22:31.203Z,93.70
2017-10-30T23:24:58.687Z,93.90
2017-10-30T23:27:28.119Z,93.90
2017-10-30T23:29:55.607Z,93.90
2017-10-30T23:32:23.104Z,93.80
2017-10-30T23:34:50.599Z,93.70
2017-10-30T23:37:18.083Z,93.70
2017-10-30T23:39:45.606Z,93.80
2017-10-30T23:42:14.648Z,94.20
2017-10-30T23:44:42.148Z,94.20
2017-10-30T23:47:10.016Z,94.20
2017-10-30T23:49:37.888Z,94.30
2017-10-30T23:52:07.720Z,94.40
2017-10-30T23:54:35.197Z,94.40
2017-10-30T23:57:04.623Z,94.90
2017-10-30T23:59:32.095Z,95.20
